Time,TemperatureF,DewpointF,PressureIn,WindDirection,WindDirectionDegrees,WindSpeedMPH,WindSpeedGustMPH,Humidity,HourlyPrecipIn,Conditions,Clouds,dailyrainin,SoftwareType,DateUTC
2013-08-03 00:00:00,66.4,64.9,29.95,WSW,240,0.0,0.0,95,0.07,RA,SKC,0.00,WeatherDisplay:10.37,2013-08-03 04:00:00,
2013-08-03 00:10:00,66.2,65.1,29.95,WSW,240,0.0,0.0,96,0.04,RA,SKC,0.04,WeatherDisplay:10.37,2013-08-03 04:10:00,
2013-08-03 00:20:00,66.5,65.3,29.95,WSW,240,0.0,0.0,96,0.04,RA,SKC,0.08,WeatherDisplay:10.37,2013-08-03 04:20:00,
2013-08-03 00:30:00,66.6,65.1,29.95,SW,236,0.0,6.0,95,0.05,RA,SKC,0.13,WeatherDisplay:10.37,2013-08-03 04:30:00,
2013-08-03 00:40:00,67.7,65.9,29.95,WSW,247,0.0,3.0,94,0.04,RA,SKC,0.17,WeatherDisplay:10.37,2013-08-03 04:40:00,
2013-08-03 00:50:00,66.4,64.6,29.95,WSW,247,0.0,0.0,94,0.04,RA,SKC,0.21,WeatherDisplay:10.37,2013-08-03 04:50:00,
2013-08-03 01:00:00,66.7,65.0,29.96,WSW,247,0.0,0.0,94,0.05,RA,SKC,0.26,WeatherDisplay:10.37,2013-08-03 05:00:00,
2013-08-03 01:10:00,67.2,65.4,29.96,West,259,0.0,6.0,94,0.05,RA,SKC,0.31,WeatherDisplay:10.37,2013-08-03 05:10:00,
2013-08-03 01:20:00,66.2,64.7,29.96,West,276,0.0,3.0,95,0.06,RA,SKC,0.37,WeatherDisplay:10.37,2013-08-03 05:20:00,
2013-08-03 01:30:00,66.6,65.4,29.95,West,276,0.0,0.0,96,0.03,RA,SKC,0.40,WeatherDisplay:10.37,2013-08-03 05:30:00,
2013-08-03 01:40:00,66.4,65.2,29.95,West,272,0.0,5.0,96,0.04,RA,SKC,0.44,WeatherDisplay:10.37,2013-08-03 05:40:00,
2013-08-03 01:50:00,65.7,64.2,29.95,SW,234,0.0,3.0,95,0.05,RA,SKC,0.49,WeatherDisplay:10.37,2013-08-03 05:50:00,
2013-08-03 02:00:00,67.1,65.6,29.95,SW,234,0.0,0.0,95,0.06,RA,SKC,0.55,WeatherDisplay:10.37,2013-08-03 06:00:00,
2013-08-03 02:09:00,66.3,64.8,29.95,SW,234,0.0,0.0,95,0.04,RA,SKC,0.59,WeatherDisplay:10.37,2013-08-03 06:09:00,
2013-08-03 02:20:00,66.8,65.6,29.95,SW,234,0.0,0.0,96,0.03,RA,SKC,0.62,WeatherDisplay:10.37,2013-08-03 06:20:00,
2013-08-03 02:29:00,66.1,65.0,29.95,SW,234,0.0,0.0,96,0.02,RA,SKC,0.64,WeatherDisplay:10.37,2013-08-03 06:29:00,
2013-08-03 02:40:00,66.6,65.2,29.94,SW,234,0.0,0.0,95,0.03,RA,SKC,0.67,WeatherDisplay:10.37,2013-08-03 06:40:00,
2013-08-03 02:50:00,66.1,64.9,29.95,SW,234,0.0,0.0,96,0.02,RA,SKC,0.69,WeatherDisplay:10.37,2013-08-03 06:50:00,
2013-08-03 02:59:00,66.9,65.7,29.94,SW,234,0.0,0.0,96,0.03,RA,SKC,0.72,WeatherDisplay:10.37,2013-08-03 06:59:00,
2013-08-03 03:10:00,66.4,65.2,29.93,SW,234,0.0,0.0,96,0.02,RA,SKC,0.74,WeatherDisplay:10.37,2013-08-03 07:10:00,
2013-08-03 03:20:00,66.2,65.1,29.93,SW,234,0.0,0.0,96,0.01,RA,SKC,0.75,WeatherDisplay:10.37,2013-08-03 07:20:00,
2013-08-03 03:30:00,66.8,65.9,29.93,SW,234,0.0,0.0,97,0.01,RA,SKC,0.76,WeatherDisplay:10.37,2013-08-03 07:30:00,
2013-08-03 03:39:00,66.5,65.6,29.93,SW,234,0.0,0.0,97,0.00,CLR,SKC,0.76,WeatherDisplay:10.37,2013-08-03 07:39:00,
2013-08-03 03:49:00,66.2,65.6,29.94,SW,234,0.0,0.0,98,0.00,CLR,SKC,0.76,WeatherDisplay:10.37,2013-08-03 07:49:00,
2013-08-03 03:59:00,66.4,65.9,29.94,SW,234,0.0,0.0,98,0.00,CLR,SKC,0.76,WeatherDisplay:10.37,2013-08-03 07:59:00,
2013-08-03 04:09:00,66.5,65.6,29.94,SW,234,0.0,0.0,97,0.00,CLR,SKC,0.76,WeatherDisplay:10.37,2013-08-03 08:09:00,
2013-08-03 04:20:00,66.2,65.3,29.93,SW,234,0.0,0.0,97,0.00,CLR,SKC,0.76,WeatherDisplay:10.37,2013-08-03 08:20:00,
2013-08-03 04:29:00,67.2,66.3,29.93,SW,234,0.0,0.0,97,0.01,RA,SKC,0.77,WeatherDisplay:10.37,2013-08-03 08:29:00,
2013-08-03 04:39:00,65.9,65.4,29.92,SW,234,0.0,0.0,98,0.00,CLR,SKC,0.77,WeatherDisplay:10.37,2013-08-03 08:39:00,
2013-08-03 04:49:00,66.1,65.5,29.92,SW,234,0.0,0.0,98,0.00,CLR,SKC,0.77,WeatherDisplay:10.37,2013-08-03 08:49:00,
2013-08-03 04:59:00,65.9,65.3,29.93,SW,234,0.0,0.0,98,0.00,CLR,SKC,0.77,WeatherDisplay:10.37,2013-08-03 08:59:00,
2013-08-03 05:09:00,65.8,65.2,29.92,SW,234,0.0,0.0,98,0.00,CLR,SKC,0.77,WeatherDisplay:10.37,2013-08-03 09:09:00,
2013-08-03 05:19:00,66.3,65.7,29.93,SW,234,0.0,0.0,98,0.00,CLR,SKC,0.77,WeatherDisplay:10.37,2013-08-03 09:19:00,
2013-08-03 05:29:00,66.9,66.0,29.93,SW,234,0.0,0.0,97,0.00,CLR,SKC,0.77,WeatherDisplay:10.37,2013-08-03 09:29:00,
2013-08-03 05:39:00,65.7,64.8,29.93,SW,234,0.0,0.0,97,0.00,CLR,SKC,0.77,WeatherDisplay:10.37,2013-08-03 09:39:00,
2013-08-03 05:49:00,66.7,65.9,29.94,SW,234,0.0,0.0,97,0.00,CLR,SKC,0.77,WeatherDisplay:10.37,2013-08-03 09:49:00,
2013-08-03 05:59:00,67.0,66.1,29.94,SW,234,0.0,0.0,97,0.00,CLR,SKC,0.77,WeatherDisplay:10.37,2013-08-03 09:59:00,
2013-08-03 06:09:00,66.5,65.6,29.95,SW,234,0.0,0.0,97,0.00,CLR,SKC,0.77,WeatherDisplay:10.37,2013-08-03 10:09:00,
2013-08-03 06:19:00,66.0,65.1,29.95,SW,234,0.0,0.0,97,0.00,CLR,SKC,0.77,WeatherDisplay:10.37,2013-08-03 10:19:00,
2013-08-03 06:29:00,66.6,65.7,29.95,SW,234,0.0,0.0,97,0.00,CLR,SKC,0.77,WeatherDisplay:10.37,2013-08-03 10:29:00,
2013-08-03 06:40:00,67.1,66.2,29.95,SW,234,0.0,0.0,97,0.00,CLR,SKC,0.77,WeatherDisplay:10.37,2013-08-03 10:40:00,
2013-08-03 06:50:00,65.9,65.0,29.95,SW,234,0.0,0.0,97,0.00,CLR,SKC,0.77,WeatherDisplay:10.37,2013-08-03 10:50:00,
2013-08-03 07:00:00,65.9,65.0,29.95,SW,234,0.0,0.0,97,0.00,CLR,SKC,0.77,WeatherDisplay:10.37,2013-08-03 11:00:00,
2013-08-03 07:10:00,64.8,64.3,29.95,SW,234,0.0,0.0,98,0.00,CLR,SKC,0.77,WeatherDisplay:10.37,2013-08-03 11:10:00,
2013-08-03 07:20:00,65.4,64.8,29.95,SW,234,0.0,0.0,98,0.00,CLR,SKC,0.77,WeatherDisplay:10.37,2013-08-03 11:20:00,
2013-08-03 07:30:00,65.7,65.1,29.95,SW,234,0.0,0.0,98,0.00,CLR,SKC,0.77,WeatherDisplay:10.37,2013-08-03 11:30:00,
2013-08-03 07:40:00,65.5,65.2,29.95,SW,234,0.0,0.0,99,0.00,CLR,SKC,0.77,WeatherDisplay:10.37,2013-08-03 11:40:00,
2013-08-03 07:50:00,65.5,64.6,29.96,SW,234,0.0,0.0,97,0.00,CLR,SKC,0.77,WeatherDisplay:10.37,2013-08-03 11:50:00,
2013-08-03 08:00:00,65.3,64.5,29.97,SW,234,0.0,0.0,97,0.00,CLR,SKC,0.77,WeatherDisplay:10.37,2013-08-03 12:00:00,
2013-08-03 08:10:00,65.1,64.5,29.97,SW,234,0.0,0.0,98,0.00,CLR,SKC,0.77,WeatherDisplay:10.37,2013-08-03 12:10:00,
2013-08-03 08:20:00,65.3,64.5,29.97,West,277,0.0,3.0,97,0.00,CLR,SKC,0.77,WeatherDisplay:10.37,2013-08-03 12:20:00,
2013-08-03 08:30:00,65.7,64.9,29.97,NNW,336,0.0,3.0,97,0.00,CLR,SKC,0.77,WeatherDisplay:10.37,2013-08-03 12:30:00,
2013-08-03 08:40:00,65.4,64.9,29.97,NNE,25,0.0,0.0,98,0.00,CLR,SKC,0.77,WeatherDisplay:10.37,2013-08-03 12:40:00,
2013-08-03 08:50:00,65.2,64.3,29.97,NNE,25,0.0,0.0,97,0.00,CLR,SKC,0.77,WeatherDisplay:10.37,2013-08-03 12:50:00,
2013-08-03 09:00:00,65.4,64.6,29.97,NNE,25,0.0,0.0,97,0.00,CLR,SKC,0.77,WeatherDisplay:10.37,2013-08-03 13:00:00,
2013-08-03 09:10:00,65.8,64.7,29.98,NNE,25,0.0,0.0,96,0.00,CLR,SKC,0.77,WeatherDisplay:10.37,2013-08-03 13:10:00,
2013-08-03 09:20:00,66.8,65.0,29.97,NNE,25,0.0,0.0,94,0.00,CLR,SKC,0.77,WeatherDisplay:10.37,2013-08-03 13:20:00,
2013-08-03 09:30:00,66.8,64.4,29.97,NNE,25,0.0,3.0,92,0.00,CLR,SKC,0.77,WeatherDisplay:10.37,2013-08-03 13:30:00,
2013-08-03 09:40:00,66.2,63.8,29.98,North,10,0.0,2.0,92,0.00,CLR,SKC,0.77,WeatherDisplay:10.37,2013-08-03 13:40:00,
2013-08-03 09:50:00,66.9,64.5,29.98,NNW,338,0.0,3.0,92,0.00,CLR,SKC,0.77,WeatherDisplay:10.37,2013-08-03 13:50:00,
2013-08-03 10:00:00,66.4,63.7,29.98,NNW,338,0.0,0.0,91,0.00,CLR,SKC,0.77,WeatherDisplay:10.37,2013-08-03 14:00:00,
2013-08-03 10:10:00,67.2,64.8,29.97,NNW,338,0.0,0.0,92,0.00,CLR,SKC,0.77,WeatherDisplay:10.37,2013-08-03 14:10:00,
2013-08-03 10:20:00,66.7,64.3,29.98,NNE,14,0.0,6.0,92,0.00,CLR,SKC,0.77,WeatherDisplay:10.37,2013-08-03 14:20:00,
2013-08-03 10:30:00,67.3,64.6,29.98,NNW,341,0.0,8.0,91,0.00,CLR,SKC,0.77,WeatherDisplay:10.37,2013-08-03 14:30:00,
2013-08-03 10:40:00,67.4,65.0,29.98,NNW,341,0.0,0.0,92,0.00,CLR,SKC,0.77,WeatherDisplay:10.37,2013-08-03 14:40:00,
2013-08-03 10:50:00,66.9,64.1,29.98,NE,45,0.0,7.0,91,0.00,CLR,SKC,0.77,WeatherDisplay:10.37,2013-08-03 14:50:00,
2013-08-03 11:00:00,66.8,63.8,29.99,East,83,0.0,0.0,90,0.00,CLR,SKC,0.77,WeatherDisplay:10.37,2013-08-03 15:00:00,
2013-08-03 11:10:00,67.3,64.2,29.99,East,83,0.0,0.0,90,0.00,CLR,SKC,0.77,WeatherDisplay:10.37,2013-08-03 15:10:00,
2013-08-03 11:20:00,67.3,63.6,29.99,ENE,64,0.0,7.0,88,0.00,CLR,SKC,0.77,WeatherDisplay:10.37,2013-08-03 15:20:00,
2013-08-03 11:30:00,67.9,64.2,29.99,NE,54,0.0,4.0,88,0.00,CLR,SKC,0.77,WeatherDisplay:10.37,2013-08-03 15:30:00,
2013-08-03 11:40:00,67.9,64.2,29.99,NE,35,0.0,2.0,88,0.00,CLR,SKC,0.77,WeatherDisplay:10.37,2013-08-03 15:40:00,
2013-08-03 11:50:00,68.4,63.4,29.99,NE,35,0.0,0.0,84,0.00,CLR,SKC,0.77,WeatherDisplay:10.37,2013-08-03 15:50:00,
2013-08-03 12:00:00,69.3,62.5,29.99,NE,35,0.0,0.0,79,0.00,CLR,SKC,0.77,WeatherDisplay:10.37,2013-08-03 16:00:00,
2013-08-03 12:10:00,70.0,61.0,30.00,East,81,6.0,8.0,73,0.00,CLR,SKC,0.77,WeatherDisplay:10.37,2013-08-03 16:10:00,
2013-08-03 12:20:00,71.5,63.5,29.99,East,98,0.0,5.0,76,0.00,CLR,SKC,0.77,WeatherDisplay:10.37,2013-08-03 16:20:00,
2013-08-03 12:30:00,70.7,63.5,29.99,NNW,343,0.0,0.0,78,0.00,CLR,SKC,0.77,WeatherDisplay:10.37,2013-08-03 16:30:00,
2013-08-03 12:40:00,71.6,60.5,29.99,NE,35,6.0,8.0,68,0.00,CLR,SKC,0.77,WeatherDisplay:10.37,2013-08-03 16:40:00,
2013-08-03 12:50:00,72.1,60.5,29.99,NNE,31,6.0,9.0,67,0.00,CLR,SKC,0.77,WeatherDisplay:10.37,2013-08-03 16:50:00,
2013-08-03 13:00:00,72.6,58.9,29.99,NNE,19,1.0,7.0,62,0.00,CLR,SKC,0.77,WeatherDisplay:10.37,2013-08-03 17:00:00,
2013-08-03 13:10:00,73.1,60.6,29.99,North,8,0.0,6.0,65,0.00,CLR,SKC,0.77,WeatherDisplay:10.37,2013-08-03 17:10:00,
2013-08-03 13:20:00,74.2,59.9,29.99,NNE,33,1.0,7.0,61,0.00,CLR,SKC,0.77,WeatherDisplay:10.37,2013-08-03 17:20:00,
2013-08-03 13:30:00,73.1,57.5,29.99,ENE,77,3.0,7.0,58,0.00,CLR,SKC,0.77,WeatherDisplay:10.37,2013-08-03 17:30:00,
2013-08-03 13:39:00,74.5,58.7,29.99,ENE,74,1.0,9.0,58,0.00,CLR,SKC,0.77,WeatherDisplay:10.37,2013-08-03 17:39:00,
2013-08-03 13:49:00,74.2,59.4,29.99,NNE,14,3.0,7.0,60,0.00,CLR,SKC,0.77,WeatherDisplay:10.37,2013-08-03 17:49:00,
2013-08-03 13:59:00,75.7,59.4,30.00,NNE,26,2.0,7.0,57,0.00,CLR,SKC,0.77,WeatherDisplay:10.37,2013-08-03 17:59:00,
2013-08-03 14:10:00,75.9,60.1,29.99,ESE,107,0.0,12.0,58,0.00,CLR,SKC,0.77,WeatherDisplay:10.37,2013-08-03 18:10:00,
2013-08-03 14:20:00,74.9,59.2,29.99,North,2,2.0,8.0,58,0.00,CLR,SKC,0.77,WeatherDisplay:10.37,2013-08-03 18:20:00,
2013-08-03 14:30:00,74.3,55.0,29.99,NE,55,6.0,10.0,51,0.00,CLR,SKC,0.77,WeatherDisplay:10.37,2013-08-03 18:30:00,
2013-08-03 14:40:00,74.5,55.7,30.00,NNE,17,2.0,9.0,52,0.00,CLR,SKC,0.77,WeatherDisplay:10.37,2013-08-03 18:40:00,
2013-08-03 14:50:00,74.5,52.4,29.99,NE,53,0.0,6.0,46,0.00,CLR,SKC,0.77,WeatherDisplay:10.37,2013-08-03 18:50:00,
2013-08-03 15:00:00,76.0,57.1,29.99,NE,40,1.0,8.0,52,0.00,CLR,SKC,0.77,WeatherDisplay:10.37,2013-08-03 19:00:00,
2013-08-03 15:10:00,76.4,55.2,29.99,NNE,26,6.0,10.0,48,0.00,CLR,SKC,0.77,WeatherDisplay:10.37,2013-08-03 19:10:00,
2013-08-03 15:20:00,76.8,53.9,29.99,East,84,1.0,13.0,45,0.00,CLR,SKC,0.77,WeatherDisplay:10.37,2013-08-03 19:20:00,
2013-08-03 15:30:00,76.3,51.6,29.99,NE,52,1.0,9.0,42,0.00,CLR,SKC,0.77,WeatherDisplay:10.37,2013-08-03 19:30:00,
2013-08-03 15:39:00,75.8,52.9,29.99,North,356,1.0,8.0,45,0.00,CLR,SKC,0.77,WeatherDisplay:10.37,2013-08-03 19:39:00,
2013-08-03 15:49:00,77.1,52.9,29.99,North,5,6.0,10.0,43,0.00,CLR,SKC,0.77,WeatherDisplay:10.37,2013-08-03 19:49:00,
2013-08-03 15:59:00,76.9,50.7,29.99,NW,324,1.0,8.0,40,0.00,CLR,SKC,0.77,WeatherDisplay:10.37,2013-08-03 19:59:00,
2013-08-03 16:09:00,78.2,51.2,29.98,NW,326,0.0,9.0,39,0.00,CLR,SKC,0.77,WeatherDisplay:10.37,2013-08-03 20:09:00,
2013-08-03 16:19:00,76.5,53.6,29.98,East,82,1.0,9.0,45,0.00,CLR,SKC,0.77,WeatherDisplay:10.37,2013-08-03 20:19:00,
2013-08-03 16:29:00,76.5,52.9,29.98,NE,43,2.0,7.0,44,0.00,CLR,SKC,0.77,WeatherDisplay:10.37,2013-08-03 20:29:00,
2013-08-03 16:39:00,77.4,53.8,29.98,North,7,3.0,9.0,44,0.00,CLR,SKC,0.77,WeatherDisplay:10.37,2013-08-03 20:39:00,
2013-08-03 16:49:00,78.4,55.3,29.98,NNE,17,5.0,10.0,45,0.00,CLR,SKC,0.77,WeatherDisplay:10.37,2013-08-03 20:49:00,
2013-08-03 16:59:00,77.7,55.3,29.98,NNE,20,1.0,9.0,46,0.00,CLR,SKC,0.77,WeatherDisplay:10.37,2013-08-03 20:59:00,
2013-08-03 17:09:00,76.4,53.5,29.98,NE,35,1.0,10.0,45,0.00,CLR,SKC,0.77,WeatherDisplay:10.37,2013-08-03 21:09:00,
2013-08-03 17:19:00,77.2,53.6,29.98,NNE,14,0.0,10.0,44,0.00,CLR,SKC,0.77,WeatherDisplay:10.37,2013-08-03 21:19:00,
2013-08-03 17:29:00,76.9,53.4,29.98,North,358,0.0,10.0,44,0.00,CLR,SKC,0.77,WeatherDisplay:10.37,2013-08-03 21:29:00,
2013-08-03 17:39:00,77.7,55.3,29.98,NNE,19,0.0,7.0,46,0.00,CLR,SKC,0.77,WeatherDisplay:10.37,2013-08-03 21:39:00,
2013-08-03 17:49:00,77.1,54.2,29.99,NNE,21,1.0,8.0,45,0.00,CLR,SKC,0.77,WeatherDisplay:10.37,2013-08-03 21:49:00,
2013-08-03 17:59:00,77.4,54.4,29.99,NNE,18,0.0,8.0,45,0.00,CLR,SKC,0.77,WeatherDisplay:10.37,2013-08-03 21:59:00,
2013-08-03 18:09:00,77.0,54.7,29.99,NNE,12,0.0,9.0,46,0.00,CLR,SKC,0.77,WeatherDisplay:10.37,2013-08-03 22:09:00,
2013-08-03 18:19:00,77.2,52.3,29.98,NNE,19,2.0,7.0,42,0.00,CLR,SKC,0.77,WeatherDisplay:10.37,2013-08-03 22:19:00,
2013-08-03 18:29:00,76.6,52.4,29.98,North,10,0.0,6.0,43,0.00,CLR,SKC,0.77,WeatherDisplay:10.37,2013-08-03 22:29:00,
2013-08-03 18:40:00,75.6,51.5,29.98,North,360,6.0,9.0,43,0.00,CLR,SKC,0.77,WeatherDisplay:10.37,2013-08-03 22:40:00,
2013-08-03 18:50:00,76.5,53.6,29.98,North,355,2.0,8.0,45,0.00,CLR,SKC,0.77,WeatherDisplay:10.37,2013-08-03 22:50:00,
2013-08-03 19:00:00,76.1,54.9,29.99,NNE,14,0.0,7.0,48,0.00,CLR,SKC,0.77,WeatherDisplay:10.37,2013-08-03 23:00:00,
2013-08-03 19:10:00,75.2,55.3,29.99,NNE,14,0.0,0.0,50,0.00,CLR,SKC,0.77,WeatherDisplay:10.37,2013-08-03 23:10:00,
2013-08-03 19:20:00,75.1,56.3,29.99,NNE,14,0.0,0.0,52,0.00,CLR,SKC,0.77,WeatherDisplay:10.37,2013-08-03 23:20:00,
2013-08-03 19:30:00,75.8,56.9,29.99,North,9,0.0,5.0,52,0.00,CLR,SKC,0.77,WeatherDisplay:10.37,2013-08-03 23:30:00,
2013-08-03 19:40:00,75.0,56.7,29.99,North,5,0.0,0.0,53,0.00,CLR,SKC,0.77,WeatherDisplay:10.37,2013-08-03 23:40:00,
2013-08-03 19:50:00,74.7,56.9,29.99,North,5,0.0,0.0,54,0.00,CLR,SKC,0.77,WeatherDisplay:10.37,2013-08-03 23:50:00,
2013-08-03 20:00:00,74.9,56.0,29.99,North,9,1.0,5.0,52,0.00,CLR,SKC,0.77,WeatherDisplay:10.37,2013-08-04 00:00:00,
2013-08-03 20:10:00,74.0,56.3,29.99,North,8,1.0,6.0,54,0.00,CLR,SKC,0.77,WeatherDisplay:10.37,2013-08-04 00:10:00,
2013-08-03 20:20:00,74.0,55.8,29.99,North,353,3.0,7.0,53,0.00,CLR,SKC,0.77,WeatherDisplay:10.37,2013-08-04 00:20:00,
2013-08-03 20:30:00,73.5,57.4,29.99,North,355,0.0,7.0,57,0.00,CLR,SKC,0.77,WeatherDisplay:10.37,2013-08-04 00:30:00,
2013-08-03 20:40:00,72.8,57.7,30.00,NNW,343,0.0,0.0,59,0.00,CLR,SKC,0.77,WeatherDisplay:10.37,2013-08-04 00:40:00,
2013-08-03 20:50:00,72.5,57.8,30.00,NNW,343,0.0,0.0,60,0.00,CLR,SKC,0.77,WeatherDisplay:10.37,2013-08-04 00:50:00,
2013-08-03 21:00:00,71.9,57.7,30.00,NNW,343,0.0,0.0,61,0.00,CLR,SKC,0.77,WeatherDisplay:10.37,2013-08-04 01:00:00,
2013-08-03 21:10:00,71.6,57.9,30.00,NW,326,0.0,3.0,62,0.00,CLR,SKC,0.77,WeatherDisplay:10.37,2013-08-04 01:10:00,
2013-08-03 21:20:00,71.7,58.4,30.00,NNE,22,0.0,5.0,63,0.00,CLR,SKC,0.77,WeatherDisplay:10.37,2013-08-04 01:20:00,
2013-08-03 21:30:00,70.8,56.7,30.00,North,6,2.0,7.0,61,0.00,CLR,SKC,0.77,WeatherDisplay:10.37,2013-08-04 01:30:00,
2013-08-03 21:40:00,70.7,57.9,30.00,NNE,31,0.0,0.0,64,0.00,CLR,SKC,0.77,WeatherDisplay:10.37,2013-08-04 01:40:00,
2013-08-03 21:50:00,70.4,58.1,30.01,NNE,31,0.0,0.0,65,0.00,CLR,SKC,0.77,WeatherDisplay:10.37,2013-08-04 01:50:00,
2013-08-03 22:00:00,70.3,58.8,30.01,NNE,31,0.0,0.0,67,0.00,CLR,SKC,0.77,WeatherDisplay:10.37,2013-08-04 02:00:00,
2013-08-03 22:10:00,69.8,58.8,30.01,NNE,31,0.0,0.0,68,0.00,CLR,SKC,0.77,WeatherDisplay:10.37,2013-08-04 02:10:00,
2013-08-03 22:20:00,68.9,58.3,30.01,NNE,31,0.0,0.0,69,0.00,CLR,SKC,0.77,WeatherDisplay:10.37,2013-08-04 02:20:00,
2013-08-03 22:30:00,69.5,58.9,30.01,North,7,0.0,3.0,69,0.00,CLR,SKC,0.77,WeatherDisplay:10.37,2013-08-04 02:30:00,
2013-08-03 22:40:00,68.3,58.5,30.02,North,350,0.0,0.0,71,0.00,CLR,SKC,0.77,WeatherDisplay:10.37,2013-08-04 02:40:00,
2013-08-03 22:50:00,68.7,58.5,30.02,North,350,0.0,0.0,70,0.00,CLR,SKC,0.77,WeatherDisplay:10.37,2013-08-04 02:50:00,
2013-08-03 23:00:00,68.2,58.8,30.02,North,350,0.0,0.0,72,0.00,CLR,SKC,0.77,WeatherDisplay:10.37,2013-08-04 03:00:00,
2013-08-03 23:10:00,68.3,58.9,30.03,North,350,0.0,0.0,72,0.00,CLR,SKC,0.77,WeatherDisplay:10.37,2013-08-04 03:10:00,
2013-08-03 23:20:00,68.6,56.4,30.03,North,350,0.0,0.0,65,0.00,CLR,SKC,0.77,WeatherDisplay:10.37,2013-08-04 03:20:00,
2013-08-03 23:30:00,68.4,54.0,30.03,NNW,345,0.0,5.0,60,0.00,CLR,SKC,0.77,WeatherDisplay:10.37,2013-08-04 03:30:00,
2013-08-03 23:40:00,67.5,54.4,30.03,North,350,0.0,6.0,63,0.00,CLR,SKC,0.77,WeatherDisplay:10.37,2013-08-04 03:40:00,
2013-08-03 23:50:00,66.5,54.0,30.03,NNW,343,0.0,3.0,64,0.00,CLR,SKC,0.77,WeatherDisplay:10.37,2013-08-04 03:50:00,